Manitowoc, WI

1:13 AM CDT on August 31, 2016 (GMT -0500)
Harvest Circle | | Change Station

Elev 662 ft 44.10 °N, 87.71 °W | Updated 2 minutes ago

Mostly Cloudy
Mostly Cloudy
68.0 °F
Feels Like 68.0 °F
N
0.6
Wind Variable Wind from West
Gusts 1.2 mph

Today
High -- | Low -- °F
--% Chance of Precip.
Yesterday
High -- | Low -- °F
Precip. -- in
Pressure 30.11 in
Visibility 10.0 miles
Clouds Mostly Cloudy 2100 ft
Mostly Cloudy 2600 ft
Dew Point 62 °F
Humidity 80%
Rainfall 0.00 in
Snow Depth Not available.
6:13 AM 7:27 PM
Waning Crescent, 1% visible
SPECI KMTW 310609Z AUTO 02005KT 10SM BKN021 BKN026 19/15 A3011 RMK AO2 PNO $
Pressure 30.11 in
Visibility 10.0 miles
Clouds Mostly Cloudy 2100 ft
Mostly Cloudy 2600 ft
Dew Point 62 °F
Humidity 80%
Rainfall 0.00 in
Snow Depth Not available.
6:13 AM 7:27 PM
Waning Crescent, 1% visible
SPECI KMTW 310609Z AUTO 02005KT 10SM BKN021 BKN026 19/15 A3011 RMK AO2 PNO $

10-Day Weather Forecast

Almanac

Astronomy

Aug. 31, 2016 Rise Set
Actual Time
Civil Twilight
Nautical Twilight
Astronomical Twilight
Moon
Length of Visible Light
Length of Day
Tomorrow will be .
, % of the Moon is Illuminated

Today's Extremes

State Highs State Lows

Community

WunderPhotos

Upload Photos

1,936,040 photos uploaded!

WunderBlog® & News

Nearby

Air Quality

  Air Quality AQ Index Pollutant
Not available.

Snow Depth

Station Depth Elevation

Earthquake Activity

City Distance Mag. Time & Date
Minimum magnitude displayed is 2.5.

Coastal Water Temperatures

Place Temperature

Stations

Nearby Weather Stations

Station Location Temp. Windchill Dew Point Humidity Wind Precip. Elev Updated Type
                   

Watches & Warnings

There are currently no watches in effect.